Time;durP1;ratioP1;P1;durP2;ratioP2;P2;SDS_P1;SDS_P2;PMS_P1;PMS_P2;Temp;Humidity;BMP_temperature;BMP_pressure;BME280_temperature;BME280_humidity;BME280_pressure;Samples;Min_cycle;Max_cycle;Signal;HPM_P1;HPM_P2
2022/07/28 00:00:43;;;;;;;2.30;1.03;;;;;;;12.57;100.00;101838.31;5047416;28;20544;-78
2022/07/28 00:03:08;;;;;;;2.17;1.30;;;;;;;12.66;100.00;101842.56;5045919;28;20809;-79
2022/07/28 00:05:34;;;;;;;1.50;1.10;;;;;;;13.99;100.00;102048.88;5046244;28;20199;-78
2022/07/28 00:08:00;;;;;;;1.37;0.70;;;;;;;14.65;100.00;102151.28;5043389;28;20229;-79
2022/07/28 00:10:25;;;;;;;2.73;1.17;;;;;;;13.98;100.00;102025.63;5043836;28;20656;-78
2022/07/28 00:12:50;;;;;;;3.00;1.67;;;;;;;14.20;100.00;102088.53;5044839;28;20193;-78
2022/07/28 00:15:16;;;;;;;1.87;1.00;;;;;;;13.61;100.00;102004.28;5045104;28;20191;-79
2022/07/28 00:17:41;;;;;;;2.60;0.80;;;;;;;14.34;100.00;102137.25;5051106;28;20734;-79
2022/07/28 00:20:07;;;;;;;2.30;1.10;;;;;;;14.34;100.00;102146.16;5045895;28;20190;-78
2022/07/28 00:22:33;;;;;;;1.33;0.80;;;;;;;14.34;100.00;102126.44;5050836;28;20262;-78
2022/07/28 00:24:58;;;;;;;2.20;1.00;;;;;;;14.16;100.00;102110.69;5045908;28;20521;-79
2022/07/28 00:27:24;;;;;;;2.23;1.00;;;;;;;14.31;100.00;102140.31;5042954;28;20227;-79
2022/07/28 00:29:49;;;;;;;2.00;0.87;;;;;;;13.26;100.00;101925.97;5045657;28;20220;-78
2022/07/28 00:32:15;;;;;;;5.23;1.20;;;;;;;13.65;100.00;101992.09;5046076;28;20188;-79
2022/07/28 00:34:41;;;;;;;1.93;1.30;;;;;;;12.17;100.00;101791.19;5045340;28;20179;-78
2022/07/28 00:37:07;;;;;;;3.37;1.20;;;;;;;14.30;100.00;102142.19;5044555;28;20474;-79
2022/07/28 00:39:32;;;;;;;4.33;1.30;;;;;;;13.99;100.00;102110.91;5043319;28;20186;-79
2022/07/28 00:41:58;;;;;;;3.63;1.07;;;;;;;13.32;100.00;101988.00;5046023;28;20188;-79
2022/07/28 00:44:23;;;;;;;3.37;1.10;;;;;;;14.17;100.00;102128.53;5043841;28;20188;-79
2022/07/28 00:46:49;;;;;;;3.77;1.13;;;;;;;13.67;100.00;102022.41;5049210;28;20238;-79
2022/07/28 00:49:14;;;;;;;1.40;1.00;;;;;;;13.94;100.00;102075.63;5046405;28;20191;-78
2022/07/28 00:51:40;;;;;;;3.37;1.10;;;;;;;14.49;100.00;102143.41;5042122;28;20183;-79
2022/07/28 00:54:06;;;;;;;2.80;1.20;;;;;;;14.23;100.00;102138.56;5045064;28;20192;-79
2022/07/28 00:56:32;;;;;;;1.57;0.90;;;;;;;13.86;100.00;102077.59;5042989;28;20294;-79
2022/07/28 00:58:58;;;;;;;2.97;1.17;;;;;;;14.12;100.00;102147.19;5040726;28;20172;-78
2022/07/28 01:01:23;;;;;;;1.63;0.90;;;;;;;14.04;100.00;102155.41;5042128;28;20441;-79
2022/07/28 01:03:53;;;;;;;3.73;1.30;;;;;;;13.55;100.00;102039.06;5043016;28;20186;-79
2022/07/28 01:06:30;;;;;;;2.23;1.10;;;;;;;14.24;100.00;102138.41;5044369;28;20214;-78
2022/07/28 01:09:14;;;;;;;1.80;0.90;;;;;;;14.12;100.00;102136.41;5040476;28;20554;-78
2022/07/28 01:12:12;;;;;;;2.10;1.10;;;;;;;14.05;100.00;102138.16;5042657;28;20445;-76
2022/07/28 01:14:48;;;;;;;2.77;1.23;;;;;;;13.88;100.00;102132.16;5055568;28;20518;-77
2022/07/28 01:17:23;;;;;;;1.20;0.70;;;;;;;14.01;100.00;102122.38;5045418;28;21033;-77
2022/07/28 01:20:17;;;;;;;2.07;1.00;;;;;;;14.08;100.00;102127.00;5042927;28;20442;-78
2022/07/28 01:23:03;;;;;;;1.00;0.90;;;;;;;14.10;100.00;102131.19;5042859;28;20461;-77
2022/07/28 01:25:44;;;;;;;1.40;0.90;;;;;;;13.52;100.00;102079.88;5043361;28;20434;-78
2022/07/28 01:28:24;;;;;;;2.90;1.00;;;;;;;14.06;100.00;102132.59;5042562;28;20888;-77
2022/07/28 01:30:55;;;;;;;2.63;0.87;;;;;;;14.02;100.00;102125.91;5043280;28;20470;-77
2022/07/28 01:33:37;;;;;;;1.63;0.83;;;;;;;14.05;100.00;102121.97;5046044;28;20793;-77
2022/07/28 01:36:15;;;;;;;1.27;0.90;;;;;;;14.06;100.00;102134.44;5043228;28;20438;-77
2022/07/28 01:38:44;;;;;;;1.90;1.20;;;;;;;13.98;100.00;102084.16;5044956;28;20430;-77
2022/07/28 01:41:15;;;;;;;2.00;0.90;;;;;;;13.86;100.00;102089.22;5041717;28;20452;-77
2022/07/28 01:43:43;;;;;;;1.93;0.90;;;;;;;13.36;100.00;102028.88;5041506;28;20961;-77
2022/07/28 01:46:10;;;;;;;1.80;0.90;;;;;;;13.75;100.00;102098.63;5041146;28;20479;-78
2022/07/28 01:48:40;;;;;;;1.37;0.90;;;;;;;13.59;100.00;102066.47;5045455;28;20469;-77
2022/07/28 01:51:07;;;;;;;2.83;0.80;;;;;;;13.86;100.00;102121.56;5043644;28;20503;-77
2022/07/28 01:53:34;;;;;;;1.17;0.70;;;;;;;13.86;100.00;102108.09;5045539;28;20434;-78
2022/07/28 01:56:02;;;;;;;2.30;1.00;;;;;;;13.74;100.00;102098.78;5041291;28;20802;-78
2022/07/28 01:58:29;;;;;;;3.60;0.97;;;;;;;13.31;100.00;102018.69;5041835;28;20438;-78
2022/07/28 02:00:57;;;;;;;1.23;0.70;;;;;;;13.32;100.00;102025.72;5045235;28;20525;-78
2022/07/28 02:03:24;;;;;;;1.30;0.77;;;;;;;12.38;100.00;101901.59;5045136;28;20495;-77
2022/07/28 02:05:52;;;;;;;1.37;0.70;;;;;;;13.29;100.00;102054.91;5045295;28;20496;-78
2022/07/28 02:08:20;;;;;;;1.10;0.97;;;;;;;13.54;100.00;102104.81;5044938;28;20434;-77
2022/07/28 02:11:38;;;;;;;0.80;0.80;;;;;;;13.48;100.00;102050.78;5045299;28;20811;-77
2022/07/28 02:13:34;;;;;;;1.60;1.00;;;;;;;12.63;100.00;101982.06;5040582;28;20453;-77
2022/07/28 02:16:03;;;;;;;1.47;1.10;;;;;;;13.57;100.00;102107.13;5045785;28;20446;-77
2022/07/28 02:18:31;;;;;;;1.47;0.90;;;;;;;12.71;100.00;101947.00;5048349;28;20470;-78
2022/07/28 02:20:58;;;;;;;2.00;1.00;;;;;;;13.12;100.00;101984.19;5046050;28;20441;-78
2022/07/28 02:23:25;;;;;;;1.80;0.83;;;;;;;13.51;100.00;102036.94;5042504;28;20805;-79
2022/07/28 02:25:52;;;;;;;1.20;0.80;;;;;;;13.31;100.00;101996.28;5039353;22;20691;-69
2022/07/28 02:28:20;;;;;;;2.10;1.00;;;;;;;13.82;100.00;102079.81;5009886;28;20502;-69
2022/07/28 02:30:59;;;;;;;2.00;1.10;;;;;;;13.98;100.00;102098.47;5007998;28;20533;-69
2022/07/28 02:33:27;;;;;;;2.70;1.07;;;;;;;13.75;100.00;102058.19;5007824;28;20973;-69
2022/07/28 02:35:55;;;;;;;4.07;1.30;;;;;;;13.64;100.00;102044.34;5009431;28;20499;-69
2022/07/28 02:38:24;;;;;;;1.83;1.23;;;;;;;13.92;100.00;102087.63;5004659;28;20474;-69
2022/07/28 02:40:54;;;;;;;2.00;1.10;;;;;;;13.90;100.00;102085.09;5009248;28;20446;-69
2022/07/28 02:43:27;;;;;;;1.67;1.10;;;;;;;13.96;100.00;102083.50;5012989;28;20443;-69
2022/07/28 02:45:55;;;;;;;1.63;1.23;;;;;;;14.02;100.00;102080.03;5010307;28;20472;-69
2022/07/28 02:48:26;;;;;;;2.17;1.20;;;;;;;13.70;100.00;102036.34;5010176;28;20441;-68
2022/07/28 02:50:55;;;;;;;1.87;1.10;;;;;;;14.07;100.00;102090.25;5008894;28;20439;-69
2022/07/28 02:53:22;;;;;;;2.23;1.30;;;;;;;14.14;100.00;102099.25;5007259;28;20439;-68
2022/07/28 02:55:49;;;;;;;1.70;1.13;;;;;;;14.18;100.00;102093.28;5007706;28;20521;-68
2022/07/28 02:58:19;;;;;;;3.60;1.47;;;;;;;14.31;100.00;102091.75;5007248;28;20471;-69
2022/07/28 03:00:47;;;;;;;1.87;1.00;;;;;;;14.11;100.00;102073.50;5010373;28;20806;-69
2022/07/28 03:03:15;;;;;;;2.30;1.33;;;;;;;14.08;100.00;102084.66;5008296;28;20522;-69
2022/07/28 03:05:41;;;;;;;3.63;1.20;;;;;;;14.11;100.00;102072.66;5007443;28;20483;-69
2022/07/28 03:08:07;;;;;;;1.90;1.00;;;;;;;14.12;100.00;102085.97;5011427;28;20443;-69
2022/07/28 03:10:32;;;;;;;1.87;1.13;;;;;;;14.16;100.00;102070.22;5008409;28;20480;-69
2022/07/28 03:12:59;;;;;;;2.00;1.00;;;;;;;14.22;100.00;102099.97;5007968;28;20447;-69
2022/07/28 03:15:24;;;;;;;2.10;1.20;;;;;;;14.41;100.00;102101.19;5006209;28;20222;-69
2022/07/28 03:17:50;;;;;;;2.03;1.10;;;;;;;14.14;100.00;102072.28;5009632;28;20502;-69
2022/07/28 03:20:16;;;;;;;1.43;1.17;;;;;;;14.26;100.00;102086.91;5009565;28;20216;-69
2022/07/28 03:22:41;;;;;;;1.40;1.00;;;;;;;14.41;100.00;102097.66;5006889;28;20198;-69
2022/07/28 03:25:16;;;;;;;1.90;0.93;;;;;;;14.44;100.00;102100.81;5010823;28;20847;-69
2022/07/28 03:27:45;;;;;;;1.50;0.90;;;;;;;14.52;100.00;102107.13;5012348;28;20196;-69
2022/07/28 03:30:15;;;;;;;1.70;1.20;;;;;;;14.43;100.00;102092.88;5014345;28;20450;-69
2022/07/28 03:32:45;;;;;;;3.37;1.13;;;;;;;14.52;100.00;102107.13;5008909;28;20447;-69
2022/07/28 03:35:11;;;;;;;2.90;0.93;;;;;;;14.12;100.00;102058.16;5008312;28;20927;-69
2022/07/28 03:37:37;;;;;;;4.20;1.23;;;;;;;14.43;100.00;102109.09;5011902;28;20476;-69
2022/07/28 03:40:04;;;;;;;1.43;1.13;;;;;;;14.10;100.00;102031.34;5013759;28;20503;-71
2022/07/28 03:42:32;;;;;;;1.57;1.10;;;;;;;14.52;100.00;102097.16;5007490;28;20444;-69
2022/07/28 03:44:59;;;;;;;1.73;0.90;;;;;;;14.49;100.00;102113.72;5012685;28;20447;-69
2022/07/28 03:47:24;;;;;;;2.83;1.07;;;;;;;14.71;100.00;102119.13;5008059;28;20462;-69
2022/07/28 03:49:50;;;;;;;2.70;0.93;;;;;;;14.62;100.00;102113.03;5015090;28;20737;-69
2022/07/28 03:52:17;;;;;;;3.50;1.20;;;;;;;14.53;100.00;102109.63;5013916;28;20192;-68
2022/07/28 03:54:42;;;;;;;0.97;0.80;;;;;;;14.18;100.00;102069.00;5012973;28;20196;-67
2022/07/28 03:57:08;;;;;;;1.90;1.00;;;;;;;14.52;100.00;102120.63;5010445;28;20525;-67
2022/07/28 03:59:33;;;;;;;2.90;1.10;;;;;;;14.45;100.00;102118.66;5011838;28;20234;-69
2022/07/28 04:01:59;;;;;;;1.67;1.10;;;;;;;14.47;100.00;102107.69;5014268;28;20192;-69
2022/07/28 04:04:24;;;;;;;1.77;1.10;;;;;;;14.28;100.00;102075.94;5012126;28;20558;-70
2022/07/28 04:06:50;;;;;;;2.30;1.13;;;;;;;14.59;100.00;102110.72;5014124;28;20215;-69
2022/07/28 04:09:15;;;;;;;2.03;1.27;;;;;;;14.41;100.00;102076.91;5012906;28;20656;-69
2022/07/28 04:11:42;;;;;;;2.70;1.43;;;;;;;14.06;100.00;102091.28;5007043;28;20689;-69
2022/07/28 04:14:07;;;;;;;1.80;1.17;;;;;;;14.44;100.00;102130.50;5010818;28;20442;-69
2022/07/28 04:16:33;;;;;;;1.10;0.80;;;;;;;14.54;100.00;102126.66;5013742;28;20212;-69
2022/07/28 04:18:58;;;;;;;1.20;1.07;;;;;;;14.60;100.00;102104.28;5016291;28;20173;-69
2022/07/28 04:21:24;;;;;;;1.57;0.70;;;;;;;14.63;100.00;102102.03;5015924;28;20259;-69
2022/07/28 04:23:50;;;;;;;2.50;1.10;;;;;;;14.79;100.00;102117.13;5017548;28;20181;-69
2022/07/28 04:26:16;;;;;;;1.30;1.10;;;;;;;14.88;100.00;102118.66;5011589;28;20475;-69
2022/07/28 04:28:42;;;;;;;0.90;0.80;;;;;;;14.69;100.00;102087.78;5007393;28;20435;-69
2022/07/28 04:31:07;;;;;;;2.20;1.00;;;;;;;14.86;100.00;102117.19;5007113;28;20189;-69
2022/07/28 04:33:32;;;;;;;1.43;1.07;;;;;;;14.34;100.00;102056.28;5016562;28;20195;-69
2022/07/28 04:36:00;;;;;;;1.57;0.90;;;;;;;14.87;100.00;102117.00;5008615;28;20215;-69
2022/07/28 04:38:25;;;;;;;2.00;1.20;;;;;;;14.60;100.00;102075.41;5008778;28;20216;-69
2022/07/28 04:40:51;;;;;;;1.37;0.83;;;;;;;14.89;100.00;102119.47;5009672;28;20497;-69
2022/07/28 04:43:17;;;;;;;1.00;0.90;;;;;;;14.95;100.00;102115.16;5012538;28;20196;-69
2022/07/28 04:45:46;;;;;;;3.53;1.03;;;;;;;14.91;100.00;102122.84;5004056;28;20219;-68
2022/07/28 04:48:12;;;;;;;3.27;1.10;;;;;;;14.95;100.00;102115.16;5012177;28;20212;-70
2022/07/28 04:50:40;;;;;;;2.10;1.00;;;;;;;15.00;100.00;102118.13;5010335;28;20892;-69
2022/07/28 04:53:06;;;;;;;3.23;1.10;;;;;;;15.02;100.00;102116.91;5011025;28;20201;-69
2022/07/28 04:55:31;;;;;;;1.97;1.03;;;;;;;14.55;100.00;102042.78;5009017;28;20470;-69
2022/07/28 04:57:57;;;;;;;2.30;0.90;;;;;;;14.76;100.00;102078.88;5012960;28;20220;-69
2022/07/28 05:00:23;;;;;;;1.63;1.37;;;;;;;15.06;100.00;102114.63;5013296;28;20200;-69
2022/07/28 05:02:48;;;;;;;2.10;1.10;;;;;;;15.11;100.00;102128.38;5005192;28;20605;-70
2022/07/28 05:05:14;;;;;;;0.90;0.90;;;;;;;15.09;100.00;102133.97;5014262;28;20231;-68
2022/07/28 05:07:40;;;;;;;2.50;0.80;;;;;;;15.07;100.00;102137.91;5012574;28;20818;-70
2022/07/28 05:10:08;;;;;;;1.47;0.93;;;;;;;14.88;100.00;102137.56;5013303;28;20217;-68
2022/07/28 05:12:33;;;;;;;1.00;0.90;;;;;;;14.95;100.00;102131.38;5012755;28;20443;-68
2022/07/28 05:14:59;;;;;;;1.83;1.13;;;;;;;15.01;100.00;102139.53;5013303;28;20444;-68
2022/07/28 05:17:25;;;;;;;1.90;1.00;;;;;;;14.66;100.00;102096.25;4991436;28;20213;-67
2022/07/28 05:19:50;;;;;;;1.37;0.90;;;;;;;14.85;100.00;102137.13;4994380;28;20816;-67
2022/07/28 05:22:16;;;;;;;1.60;1.10;;;;;;;14.37;100.00;102099.91;4993149;28;20869;-68
2022/07/28 05:24:42;;;;;;;1.40;0.93;;;;;;;14.58;100.00;102133.34;5011329;28;20621;-68
2022/07/28 05:27:11;;;;;;;4.83;1.10;;;;;;;14.79;100.00;102133.34;5014454;28;20250;-68
2022/07/28 05:29:39;;;;;;;1.30;0.90;;;;;;;15.02;100.00;102143.91;5011863;28;20181;-68
2022/07/28 05:32:08;;;;;;;1.30;0.80;;;;;;;15.01;100.00;102144.09;5005555;28;20633;-68
2022/07/28 05:34:35;;;;;;;2.87;1.23;;;;;;;14.85;100.00;102148.75;5015565;28;20441;-69
2022/07/28 05:37:01;;;;;;;2.10;0.80;;;;;;;14.43;100.00;102146.88;5009815;28;20800;-68
2022/07/28 05:39:32;;;;;;;1.77;0.83;;;;;;;14.84;100.00;102141.69;5005514;28;20443;-68
2022/07/28 05:41:59;;;;;;;5.93;1.00;;;;;;;14.85;100.00;102123.63;5010969;28;20440;-68
2022/07/28 05:44:24;;;;;;;1.77;0.90;;;;;;;15.08;100.00;102137.72;5008615;28;20525;-68
2022/07/28 05:46:50;;;;;;;1.27;0.70;;;;;;;15.02;100.00;102130.41;5011153;28;20551;-68
2022/07/28 05:49:15;;;;;;;2.70;1.20;;;;;;;15.08;100.00;102117.97;5013487;28;20212;-68
2022/07/28 05:51:41;;;;;;;1.77;0.80;;;;;;;15.06;100.00;102144.34;5012667;28;20196;-69
2022/07/28 05:54:06;;;;;;;1.10;1.00;;;;;;;14.56;100.00;102094.91;5012905;28;20193;-68
2022/07/28 05:56:31;;;;;;;2.27;0.90;;;;;;;14.59;100.00;102097.22;5018312;28;20688;-68
2022/07/28 05:58:57;;;;;;;1.27;0.80;;;;;;;14.74;100.00;102116.88;5013805;28;20201;-68
2022/07/28 06:01:23;;;;;;;2.83;1.07;;;;;;;15.13;100.00;102139.84;5013630;28;20188;-68
2022/07/28 06:03:51;;;;;;;3.00;1.13;;;;;;;15.19;100.00;102149.00;5016480;28;20470;-68
2022/07/28 06:06:17;;;;;;;2.70;0.90;;;;;;;15.34;100.00;102150.56;5016096;28;20267;-68
2022/07/28 06:08:44;;;;;;;1.67;0.80;;;;;;;15.52;100.00;102154.63;5014884;28;20442;-68
2022/07/28 06:11:10;;;;;;;1.50;0.80;;;;;;;15.46;100.00;102142.75;5013803;28;20184;-69
2022/07/28 06:13:37;;;;;;;1.40;0.97;;;;;;;15.21;100.00;102109.09;5014303;28;20817;-68
2022/07/28 06:16:04;;;;;;;2.30;0.70;;;;;;;15.53;100.00;102157.13;5009171;28;20564;-69
2022/07/28 06:18:29;;;;;;;5.47;1.10;;;;;;;15.33;100.00;102099.41;5008745;28;20467;-69
2022/07/28 06:20:54;;;;;;;1.97;0.80;;;;;;;15.67;100.00;102155.31;5008262;28;20966;-69
2022/07/28 06:23:22;;;;;;;1.10;0.77;;;;;;;15.46;100.00;102107.59;5006393;28;20193;-68
2022/07/28 06:25:48;;;;;;;1.87;0.83;;;;;;;15.58;100.00;102160.06;5016375;28;20224;-68
2022/07/28 06:28:13;;;;;;;4.40;1.10;;;;;;;15.50;100.00;102108.00;5004567;28;20467;-69
2022/07/28 06:30:39;;;;;;;1.03;0.70;;;;;;;15.51;100.00;102131.34;5013732;28;20975;-69
2022/07/28 06:33:06;;;;;;;2.10;1.13;;;;;;;15.38;100.00;102146.44;5010090;28;20664;-69
2022/07/28 06:35:31;;;;;;;0.90;0.70;;;;;;;15.30;100.00;102135.78;5013468;28;20212;-69
2022/07/28 06:37:57;;;;;;;1.37;0.80;;;;;;;15.85;100.00;102171.03;5006994;28;20474;-69
2022/07/28 06:40:23;;;;;;;1.73;0.90;;;;;;;15.91;100.00;102169.41;5009319;28;20199;-69
2022/07/28 06:42:50;;;;;;;1.27;0.70;;;;;;;15.76;100.00;102167.66;5004014;28;20192;-69
2022/07/28 06:45:16;;;;;;;1.57;0.67;;;;;;;15.46;100.00;102141.91;5008915;28;20264;-69
2022/07/28 06:47:41;;;;;;;4.67;0.90;;;;;;;15.30;100.00;102118.72;5006422;28;20440;-69
2022/07/28 06:50:07;;;;;;;1.80;0.80;;;;;;;15.95;100.00;102166.09;5010970;28;22423;-69
2022/07/28 06:52:33;;;;;;;3.60;0.80;;;;;;;15.92;100.00;102163.81;5002485;28;20221;-69
2022/07/28 06:54:59;;;;;;;2.67;0.83;;;;;;;16.14;100.00;102164.53;5005276;28;20452;-69
2022/07/28 06:57:26;;;;;;;4.50;1.00;;;;;;;15.87;100.00;102122.97;5006746;28;20473;-69
2022/07/28 06:59:51;;;;;;;3.83;1.10;;;;;;;16.21;100.00;102156.41;5008111;28;20638;-69
2022/07/28 07:02:17;;;;;;;1.90;0.73;;;;;;;16.06;100.00;102147.63;5005903;28;20497;-69
2022/07/28 07:04:43;;;;;;;0.90;0.70;;;;;;;16.19;100.00;102164.72;5005709;28;20210;-69
2022/07/28 07:07:08;;;;;;;1.70;0.90;;;;;;;16.18;100.00;102173.06;5010830;28;20231;-68
2022/07/28 07:09:34;;;;;;;3.23;0.80;;;;;;;16.28;100.00;102151.81;5014498;28;20451;-68
2022/07/28 07:12:00;;;;;;;1.57;0.80;;;;;;;16.31;100.00;102156.81;5009672;28;20633;-68
2022/07/28 07:14:25;;;;;;;1.40;1.00;;;;;;;16.34;100.00;102161.84;5005733;28;20271;-68
2022/07/28 07:16:52;;;;;;;1.60;0.90;;;;;;;16.32;100.00;102163.94;5008802;28;20480;-68
2022/07/28 07:19:19;;;;;;;2.13;0.80;;;;;;;16.49;100.00;102159.81;5005614;28;20184;-68
2022/07/28 07:21:44;;;;;;;2.20;0.70;;;;;;;16.54;100.00;102155.63;5004471;28;21106;-68
2022/07/28 07:24:10;;;;;;;1.90;0.80;;;;;;;16.21;100.00;102084.13;5012854;28;20509;-68
2022/07/28 07:26:36;;;;;;;2.07;0.60;;;;;;;16.44;100.00;102129.78;5005010;28;20560;-68
2022/07/28 07:29:02;;;;;;;1.37;0.60;;;;;;;16.65;100.00;102150.44;5005952;28;20191;-68
2022/07/28 07:31:28;;;;;;;1.63;0.67;;;;;;;16.52;100.00;102146.88;5002450;28;20475;-68
2022/07/28 07:33:53;;;;;;;2.27;0.80;;;;;;;16.68;100.00;102154.59;5007332;28;20454;-68
2022/07/28 07:36:19;;;;;;;1.00;0.90;;;;;;;16.51;100.00;102156.88;5009101;28;20219;-68
2022/07/28 07:38:44;;;;;;;1.03;0.60;;;;;;;16.59;100.00;102156.69;5003166;28;20266;-68
2022/07/28 07:41:11;;;;;;;1.43;0.70;;;;;;;16.67;100.00;102161.91;5005517;28;20568;-68
2022/07/28 07:43:36;;;;;;;0.70;0.60;;;;;;;16.83;100.00;102155.25;5005713;28;20471;-68
2022/07/28 07:46:02;;;;;;;2.03;0.80;;;;;;;16.97;100.00;102157.97;5006865;28;20928;-68
2022/07/28 07:48:27;;;;;;;1.20;0.80;;;;;;;16.61;100.00;102086.88;5011297;28;20259;-68
2022/07/28 07:50:52;;;;;;;4.10;0.80;;;;;;;17.08;100.00;102152.75;5009188;28;20237;-67
2022/07/28 07:53:18;;;;;;;1.07;0.90;;;;;;;17.15;100.00;102161.72;5012242;28;21208;-68
2022/07/28 07:55:43;;;;;;;2.07;0.70;;;;;;;17.17;100.00;102159.63;5009206;28;20452;-68
2022/07/28 07:58:09;;;;;;;1.67;0.80;;;;;;;17.07;100.00;102150.28;5008895;28;20704;-68
2022/07/28 08:00:34;;;;;;;1.00;0.60;;;;;;;17.20;100.00;102131.25;5007204;28;20200;-68
2022/07/28 08:03:00;;;;;;;1.07;0.73;;;;;;;17.23;100.00;102130.00;5005333;28;20184;-68
2022/07/28 08:05:26;;;;;;;1.00;0.70;;;;;;;17.15;100.00;102115.66;5009432;28;20196;-68
2022/07/28 08:07:51;;;;;;;1.10;0.70;;;;;;;17.26;100.00;102137.72;5009961;28;20205;-68
2022/07/28 08:10:17;;;;;;;0.90;0.60;;;;;;;17.13;100.00;102106.06;5006682;28;20452;-68
2022/07/28 08:12:42;;;;;;;2.10;0.70;;;;;;;17.44;100.00;102123.47;5009877;28;20196;-68
2022/07/28 08:15:08;;;;;;;1.83;0.90;;;;;;;17.27;100.00;102085.13;5007682;28;20283;-68
2022/07/28 08:17:34;;;;;;;1.10;0.80;;;;;;;17.60;100.00;102133.88;5012347;28;20220;-68
2022/07/28 08:19:59;;;;;;;2.53;1.17;;;;;;;17.43;100.00;102124.53;5005784;28;20466;-68
2022/07/28 08:22:25;;;;;;;1.60;0.90;;;;;;;17.40;100.00;102118.47;5016733;28;20192;-68
2022/07/28 08:24:50;;;;;;;1.03;0.60;;;;;;;17.41;100.00;102132.88;5016410;28;20196;-68
2022/07/28 08:27:16;;;;;;;1.97;0.70;;;;;;;16.96;100.00;102072.31;5008703;28;21050;-68
2022/07/28 08:29:42;;;;;;;1.17;0.70;;;;;;;17.58;100.00;102130.53;5006779;28;20200;-68
2022/07/28 08:32:07;;;;;;;1.00;0.73;;;;;;;17.55;100.00;102098.41;5013681;28;20443;-68
2022/07/28 08:34:34;;;;;;;2.10;0.70;;;;;;;17.33;100.00;102084.31;5007984;28;20208;-68
2022/07/28 08:37:01;;;;;;;0.83;0.60;;;;;;;17.53;100.00;102130.34;5007647;28;20544;-68
2022/07/28 08:39:26;;;;;;;1.90;0.70;;;;;;;17.28;100.00;102065.13;5009137;28;20444;-68
2022/07/28 08:42:13;;;;;;;1.07;0.60;;;;;;;17.75;100.00;102120.84;5009836;28;20453;-69
2022/07/28 08:44:53;;;;;;;2.17;0.60;;;;;;;17.73;100.00;102127.56;5010517;28;20327;-68
2022/07/28 08:47:20;;;;;;;1.40;0.73;;;;;;;17.89;100.00;102120.84;5012449;28;20460;-68
2022/07/28 08:49:46;;;;;;;1.53;0.70;;;;;;;17.97;100.00;102128.75;5012407;28;20446;-68
2022/07/28 08:52:13;;;;;;;1.27;0.80;;;;;;;18.15;100.00;102120.69;5009688;28;20482;-68
2022/07/28 08:54:44;;;;;;;1.47;0.70;;;;;;;18.12;100.00;102123.03;5011940;28;20497;-68
2022/07/28 08:57:43;;;;;;;1.33;0.70;;;;;;;17.89;100.00;102101.84;5010397;28;20486;-68
2022/07/28 09:00:10;;;;;;;0.60;0.60;;;;;;;17.98;100.00;102100.53;5005331;28;20499;-68
2022/07/28 09:02:39;;;;;;;2.37;0.90;;;;;;;18.27;100.00;102124.38;5013427;28;20448;-68
2022/07/28 09:05:06;;;;;;;1.60;0.70;;;;;;;17.99;100.00;102096.75;5012627;28;20797;-68
2022/07/28 09:07:33;;;;;;;1.17;0.60;;;;;;;18.25;100.00;102129.22;5012238;28;20455;-68
2022/07/28 09:10:01;;;;;;;0.60;0.60;;;;;;;18.29;100.00;102111.41;5009116;28;21215;-68
2022/07/28 09:12:27;;;;;;;1.40;0.90;;;;;;;18.61;100.00;102116.00;5010600;28;20939;-68
2022/07/28 09:14:52;;;;;;;1.10;0.60;;;;;;;18.63;100.00;102109.28;5008178;28;20448;-68
2022/07/28 09:17:17;;;;;;;0.90;0.60;;;;;;;18.76;100.00;102116.53;5010498;28;20651;-68
2022/07/28 09:19:43;;;;;;;0.80;0.70;;;;;;;18.69;100.00;102094.00;5008762;28;20274;-68
2022/07/28 09:22:08;;;;;;;1.73;0.60;;;;;;;18.58;100.00;102081.94;5010938;28;20703;-68
2022/07/28 09:24:43;;;;;;;1.13;0.70;;;;;;;18.53;100.00;102055.44;5009216;28;20193;-68
2022/07/28 09:27:14;;;;;;;1.40;0.80;;;;;;;18.65;100.00;102122.66;5008146;28;20244;-68
2022/07/28 09:29:57;;;;;;;1.53;0.70;;;;;;;18.82;100.00;102122.97;5011772;28;20495;-69
2022/07/28 09:32:22;;;;;;;0.97;0.80;;;;;;;18.77;100.00;102129.03;5005671;28;20444;-68
2022/07/28 09:34:49;;;;;;;1.20;0.80;;;;;;;18.77;100.00;102111.91;5009885;28;20462;-68
2022/07/28 09:37:19;;;;;;;1.10;0.70;;;;;;;18.85;100.00;102117.91;5008054;28;20228;-68
2022/07/28 09:39:46;;;;;;;1.43;0.80;;;;;;;18.82;100.00;102131.09;5010530;28;20866;-68
2022/07/28 09:42:12;;;;;;;1.77;0.90;;;;;;;18.93;100.00;102127.66;5010882;28;20444;-68
2022/07/28 09:44:38;;;;;;;1.20;0.70;;;;;;;18.47;100.00;102077.22;5014531;28;20543;-68
2022/07/28 09:47:23;;;;;;;3.00;0.93;;;;;;;18.60;100.00;102123.31;5008757;28;20283;-68
2022/07/28 09:49:49;;;;;;;1.27;0.60;;;;;;;18.55;100.00;102100.59;4999321;28;20534;-69
2022/07/28 09:52:29;;;;;;;1.43;0.63;;;;;;;18.64;100.00;102124.53;4999442;28;20440;-68
2022/07/28 09:55:01;;;;;;;1.73;0.60;;;;;;;18.82;100.00;102131.94;4999971;28;20443;-68
2022/07/28 09:57:27;;;;;;;1.20;0.63;;;;;;;18.58;100.00;102105.56;5010570;28;20914;-68
2022/07/28 09:59:53;;;;;;;0.93;0.70;;;;;;;18.49;100.00;102126.75;5002009;28;20535;-68
2022/07/28 10:02:26;;;;;;;0.80;0.60;;;;;;;18.65;100.00;102118.03;4997099;28;20438;-68
2022/07/28 10:04:52;;;;;;;1.73;0.60;;;;;;;18.70;100.00;102129.06;4995096;28;20200;-69
2022/07/28 10:07:18;;;;;;;0.97;0.60;;;;;;;18.56;100.00;102130.22;4998622;28;20543;-70
2022/07/28 10:09:59;;;;;;;0.80;0.60;;;;;;;18.53;100.00;102117.09;4985179;28;20535;-69
2022/07/28 10:12:26;;;;;;;1.63;0.60;;;;;;;18.72;100.00;102137.84;4980062;28;20458;-68
2022/07/28 10:14:54;;;;;;;3.27;0.73;;;;;;;18.35;100.00;102054.56;4981207;28;20439;-67
2022/07/28 10:17:22;;;;;;;3.50;0.70;;;;;;;18.23;100.00;102085.13;5000325;28;21089;-71
2022/07/28 10:19:48;;;;;;;2.83;1.03;;;;;;;18.32;100.00;102091.13;4997765;28;20447;-67
2022/07/28 10:22:16;;;;;;;2.10;0.60;;;;;;;18.58;100.00;102111.00;5003071;28;21024;-68
2022/07/28 10:24:45;;;;;;;1.43;0.63;;;;;;;18.64;100.00;102119.09;5004747;28;20192;-67
2022/07/28 10:27:11;;;;;;;3.33;0.90;;;;;;;18.73;100.00;102111.50;5002875;28;20598;-69
2022/07/28 10:29:37;;;;;;;2.30;0.70;;;;;;;18.92;100.00;102128.72;5006929;28;20450;-68
2022/07/28 10:32:05;;;;;;;1.80;0.70;;;;;;;18.86;100.00;102111.44;5005235;28;20558;-69
2022/07/28 10:34:44;;;;;;;1.07;0.97;;;;;;;18.49;100.00;102051.50;5006173;28;20662;-69
2022/07/28 10:37:18;;;;;;;1.23;0.63;;;;;;;18.99;100.00;102110.47;5008973;28;20573;-66
2022/07/28 10:39:52;;;;;;;0.90;0.77;;;;;;;18.95;100.00;102069.28;4985686;28;25772;-67
2022/07/28 10:42:19;;;;;;;1.50;0.67;;;;;;;19.16;100.00;102081.63;4998392;28;20999;-68
2022/07/28 10:44:46;;;;;;;0.70;0.53;;;;;;;19.08;100.00;102076.47;4993843;28;20451;-67
2022/07/28 10:47:11;;;;;;;1.20;0.60;;;;;;;18.94;100.00;102040.44;5006817;28;20470;-67
2022/07/28 10:49:38;;;;;;;1.40;0.60;;;;;;;19.12;100.00;102076.84;4995736;28;20952;-67
2022/07/28 10:52:06;;;;;;;3.33;0.70;;;;;;;19.45;100.00;102100.97;4994755;28;20360;-68
2022/07/28 10:54:57;;;;;;;1.00;0.73;;;;;;;19.47;100.00;102093.41;5013752;28;20492;-68
2022/07/28 10:57:24;;;;;;;1.33;0.73;;;;;;;19.39;100.00;102088.28;4992137;28;20519;-68
2022/07/28 11:00:07;;;;;;;2.57;0.70;;;;;;;19.39;100.00;102096.44;4995185;28;20466;-67
2022/07/28 11:02:42;;;;;;;0.70;0.67;;;;;;;19.74;100.00;102090.38;4997549;28;20451;-67
2022/07/28 11:05:25;;;;;;;0.93;0.80;;;;;;;19.87;100.00;102098.38;5000724;28;21162;-67
2022/07/28 11:07:51;;;;;;;0.83;0.70;;;;;;;19.71;100.00;102061.72;5001487;28;20450;-67
2022/07/28 11:10:19;;;;;;;2.43;0.80;;;;;;;19.98;100.00;102094.03;4999218;28;20814;-67
2022/07/28 11:12:51;;;;;;;0.60;0.60;;;;;;;19.70;100.00;102095.47;5009097;28;20204;-67
2022/07/28 11:15:28;;;;;;;1.00;0.70;;;;;;;19.80;100.00;102090.28;5004714;28;20442;-68
2022/07/28 11:18:06;;;;;;;1.70;0.80;;;;;;;19.93;100.00;102083.84;5003310;28;20495;-67
2022/07/28 11:21:07;;;;;;;0.93;0.60;;;;;;;20.04;100.00;102090.38;4999488;28;20446;-67